La Grande Rivière Airport
CYGL : now visible

Airfield :











YOU CAN JOIN US ON...

 
LOGIN :

Register | Disclaimer

   EN    FR    IT 

 









Legend :    VFR   Marginal VFR   IFR   Intensive IFR   Very Intensive IFR
Visi :
Ceiling :
>= 8 km
>= 3000ft
5 to 8 km
1000 to 3000 ft
1500m to 5 km
500 to 1000 ft
800 to 1500m
200 to 500 ft
< 800m
< 200 ft
Symbols :   Thunderstorms  Fog  Heavy snow  Heavy precipitations  Wind > 20 kt






- Airport Elevation : 639 ft
- IATA code : YGL


CYGL - La Grande Rivière

CURRENT METAR :
  • 231300Z 10005KT 2SM BR FEW004 FEW220 M25/M28 A2991 RMK SF1CI1 RIME ON INDICATOR SLP155

EXPIRED METARs :
  • 231217Z 10006KT 2SM BR FEW001 SCT004 BKN200 M25/M28 A2989 RMK SF2SF1CI2 VIS NW 1 SLP149
  • 231205Z 10006KT 1 1/2SM -SN BR FEW001 SCT004 BKN200 M25/M28 A2989 RMK SF2SF2CI1 FROIN SLP148
  • 231100Z 07004KT 3/4SM -SN BR BKN001 M24/M27 A2988 RMK FG3SF4 FROIN SLP144

TAF TAF CYGL
Valid from the 23 at 12:00 until the 24 at 12:00 UTC


231138Z 2312/2412 07005KT 1SM -SN BR OVC001
BECMG 2312/2314 6SM BR SCT001
FM231400 09010KT P6SM FEW010
TEMPO 2314/2318 BKN010
PROB30 2314/2318 2SM IC
FM240000 08012G22KT P6SM BKN130
FM240900 07012G22KT 5SM -SN BR BKN006 OVC100 RMK NXT FCST BY 231800Z



MET'MAP, your aeronautical weather chart ! - Copyright ORBIFLY December 2007 - Disclaimer

ORBIFLY MET'MAP TEAM :

Programming & Development : Alexandra Zaïnal
Concept & original design : Baudouin d'Aumeries
Assistance for programming : Marc-Olivier Méhu
Technical & hardware support : Manuel Goepfert

Contact : metmap@orbifly.com




SOURCES & CREDITS :

   NOAA       Earth
Advisory